createdAt,value
2018-12-31T00:02:23.250Z,6.75
2018-12-31T00:04:50.537Z,6.45
2018-12-31T00:07:17.778Z,7.53
2018-12-31T00:09:44.991Z,6.47
2018-12-31T00:12:12.251Z,6.70
2018-12-31T00:14:39.475Z,6.20
2018-12-31T00:17:06.706Z,7.42
2018-12-31T00:19:33.978Z,6.83
2018-12-31T00:22:01.218Z,5.95
2018-12-31T00:24:28.438Z,6.30
2018-12-31T00:26:55.663Z,7.50
2018-12-31T00:29:22.886Z,6.58
2018-12-31T00:31:50.098Z,5.58
2018-12-31T00:34:17.335Z,6.50
2018-12-31T00:36:44.534Z,7.03
2018-12-31T00:39:11.758Z,5.85
2018-12-31T00:41:38.974Z,5.83
2018-12-31T00:44:06.198Z,5.37
2018-12-31T00:46:33.415Z,5.20
2018-12-31T00:49:00.727Z,6.20
2018-12-31T00:51:27.935Z,5.00
2018-12-31T00:53:55.163Z,5.55
2018-12-31T00:56:22.490Z,6.05
2018-12-31T00:58:49.707Z,4.72
2018-12-31T01:01:16.926Z,5.20
2018-12-31T01:03:44.235Z,5.30
2018-12-31T01:06:11.456Z,5.10
2018-12-31T01:08:38.683Z,6.58
2018-12-31T01:11:05.911Z,4.30
2018-12-31T01:13:33.134Z,4.85
2018-12-31T01:16:00.351Z,3.98
2018-12-31T01:18:27.575Z,5.17
2018-12-31T01:20:54.795Z,5.30
2018-12-31T01:23:22.030Z,4.70
2018-12-31T01:25:49.241Z,4.80
2018-12-31T01:28:16.554Z,5.15
2018-12-31T01:30:43.771Z,5.33
2018-12-31T01:33:10.995Z,5.47
2018-12-31T01:35:38.215Z,4.90
2018-12-31T01:38:05.432Z,3.95
2018-12-31T01:40:32.642Z,3.80
2018-12-31T01:42:59.858Z,4.08
2018-12-31T01:45:27.103Z,4.60
2018-12-31T01:47:54.315Z,5.05
2018-12-31T01:50:21.540Z,4.83
2018-12-31T01:52:48.754Z,4.17
2018-12-31T01:55:15.971Z,5.10
2018-12-31T01:57:43.190Z,4.75
2018-12-31T02:00:10.421Z,4.45
2018-12-31T02:02:37.654Z,4.78
2018-12-31T02:05:05.651Z,4.12
2018-12-31T02:07:32.862Z,4.40
2018-12-31T02:10:00.121Z,3.87
2018-12-31T02:12:27.582Z,4.25
2018-12-31T02:14:54.803Z,4.60
2018-12-31T02:17:22.020Z,5.33
2018-12-31T02:19:49.284Z,4.87
2018-12-31T02:22:16.504Z,5.20
2018-12-31T02:24:43.727Z,4.25
2018-12-31T02:27:10.934Z,4.33
2018-12-31T02:29:38.163Z,5.28
2018-12-31T02:32:05.379Z,4.53
2018-12-31T02:34:32.972Z,5.12
2018-12-31T02:37:00.250Z,5.00
2018-12-31T02:39:27.467Z,4.90
2018-12-31T02:41:54.695Z,5.22
2018-12-31T02:44:21.903Z,5.33
2018-12-31T02:46:49.125Z,4.72
2018-12-31T02:49:16.338Z,4.03
2018-12-31T02:51:43.567Z,4.03
2018-12-31T02:54:10.772Z,4.78
2018-12-31T02:56:37.990Z,3.75
2018-12-31T02:59:05.212Z,5.12
2018-12-31T03:01:32.438Z,4.22
2018-12-31T03:03:59.658Z,5.15
2018-12-31T03:06:26.877Z,4.00
2018-12-31T03:08:54.111Z,5.17
2018-12-31T03:11:21.336Z,4.60
2018-12-31T03:13:48.548Z,4.53
2018-12-31T03:16:15.768Z,4.10
2018-12-31T03:18:42.988Z,5.53
2018-12-31T03:21:10.212Z,4.85
2018-12-31T03:23:37.422Z,4.62
2018-12-31T03:26:04.698Z,4.28
2018-12-31T03:28:31.902Z,5.55
2018-12-31T03:30:59.126Z,3.87
2018-12-31T03:33:26.339Z,3.35
2018-12-31T03:35:53.562Z,3.52
2018-12-31T03:38:20.770Z,4.05
2018-12-31T03:40:48.003Z,4.30
2018-12-31T03:43:15.219Z,4.33
2018-12-31T03:45:42.435Z,3.27
2018-12-31T03:48:09.655Z,4.25
2018-12-31T03:50:36.896Z,4.33
2018-12-31T03:53:04.173Z,3.75
2018-12-31T03:55:31.387Z,3.90
2018-12-31T03:57:58.612Z,3.40
2018-12-31T04:00:26.056Z,3.22
2018-12-31T04:02:53.278Z,3.08
2018-12-31T04:05:20.483Z,3.30
2018-12-31T04:07:52.895Z,3.30
2018-12-31T04:10:16.634Z,3.05
2018-12-31T04:12:43.853Z,3.02
2018-12-31T04:15:11.067Z,3.15
2018-12-31T04:17:38.293Z,3.17
2018-12-31T04:20:05.569Z,2.60
2018-12-31T04:22:32.785Z,2.47
2018-12-31T04:25:00.010Z,2.80
2018-12-31T04:27:27.260Z,3.17
2018-12-31T04:29:54.471Z,2.85
2018-12-31T04:32:21.695Z,2.47
2018-12-31T04:34:48.901Z,2.80
2018-12-31T04:37:16.129Z,2.58
2018-12-31T04:39:43.339Z,2.67
2018-12-31T04:42:10.558Z,2.35
2018-12-31T04:44:37.783Z,2.40
2018-12-31T04:47:05.010Z,2.20
2018-12-31T04:49:32.227Z,2.20
2018-12-31T04:51:59.461Z,2.15
2018-12-31T04:54:26.664Z,2.40
2018-12-31T04:56:53.880Z,2.17
2018-12-31T04:59:21.091Z,2.72
2018-12-31T05:01:48.307Z,2.42
2018-12-31T05:04:15.549Z,2.08
2018-12-31T05:06:42.773Z,2.47
2018-12-31T05:09:09.988Z,2.40
2018-12-31T05:11:37.194Z,2.05
2018-12-31T05:14:04.414Z,2.87
2018-12-31T05:16:31.623Z,1.72
2018-12-31T05:18:58.853Z,2.15
2018-12-31T05:21:26.068Z,1.98
2018-12-31T05:23:53.274Z,2.42
2018-12-31T05:26:20.489Z,1.95
2018-12-31T05:28:47.717Z,1.90
2018-12-31T05:31:14.927Z,1.77
2018-12-31T05:33:42.142Z,2.00
2018-12-31T05:36:09.358Z,2.27
2018-12-31T05:38:36.574Z,1.87
2018-12-31T05:41:03.783Z,2.08
2018-12-31T05:43:31.011Z,2.37
2018-12-31T05:45:58.223Z,1.50
2018-12-31T05:48:25.443Z,2.25
2018-12-31T05:50:52.650Z,2.10
2018-12-31T05:53:19.868Z,2.37
2018-12-31T05:55:47.080Z,1.90
2018-12-31T05:58:14.302Z,1.95
2018-12-31T06:00:42.182Z,2.98
2018-12-31T06:03:09.612Z,1.75
2018-12-31T06:05:36.828Z,2.70
2018-12-31T06:08:04.047Z,1.72
2018-12-31T06:10:31.258Z,2.05
2018-12-31T06:12:58.487Z,2.35
2018-12-31T06:15:25.727Z,1.95
2018-12-31T06:17:52.967Z,1.87
2018-12-31T06:20:20.182Z,2.27
2018-12-31T06:22:47.399Z,2.15
2018-12-31T06:25:14.610Z,1.62
2018-12-31T06:27:41.828Z,1.35
2018-12-31T06:30:09.038Z,1.80
2018-12-31T06:32:36.248Z,1.85
2018-12-31T06:35:03.467Z,1.25
2018-12-31T06:37:30.684Z,1.72
2018-12-31T06:39:57.902Z,1.75
2018-12-31T06:42:25.113Z,1.80
2018-12-31T06:44:52.343Z,1.07
2018-12-31T06:47:19.558Z,1.40
2018-12-31T06:49:46.780Z,1.65
2018-12-31T06:52:13.994Z,1.57
2018-12-31T06:54:41.206Z,1.45
2018-12-31T06:57:08.419Z,1.22
2018-12-31T06:59:35.643Z,1.40
2018-12-31T07:02:02.860Z,1.70
2018-12-31T07:04:30.070Z,1.70
2018-12-31T07:06:57.287Z,1.98
2018-12-31T07:09:24.506Z,2.00
2018-12-31T07:11:53.466Z,2.00
2018-12-31T07:14:20.678Z,1.60
2018-12-31T07:16:47.916Z,2.15
2018-12-31T07:19:15.123Z,2.45
2018-12-31T07:21:42.347Z,1.77
2018-12-31T07:24:09.554Z,2.47
2018-12-31T07:26:36.774Z,1.67
2018-12-31T07:29:03.987Z,2.10
2018-12-31T07:31:31.211Z,1.50
2018-12-31T07:33:58.435Z,1.30
2018-12-31T07:36:25.646Z,1.60
2018-12-31T07:38:52.869Z,1.77
2018-12-31T07:41:20.086Z,1.62
2018-12-31T07:43:47.304Z,1.47
2018-12-31T07:46:14.517Z,1.17
2018-12-31T07:48:41.732Z,0.57
2018-12-31T07:51:08.950Z,0.68
2018-12-31T07:53:36.154Z,0.70
2018-12-31T07:56:03.374Z,0.57
2018-12-31T07:58:30.584Z,0.68
2018-12-31T08:00:57.815Z,5.53
2018-12-31T08:03:25.035Z,1.62
2018-12-31T08:05:52.248Z,1.90
2018-12-31T08:08:19.463Z,0.75
2018-12-31T08:10:46.673Z,0.47
2018-12-31T08:13:13.884Z,0.62
2018-12-31T08:15:41.104Z,1.37
2018-12-31T08:18:08.315Z,0.88
2018-12-31T08:20:35.535Z,0.70
2018-12-31T08:23:02.751Z,0.45
2018-12-31T08:25:29.980Z,0.50
2018-12-31T08:27:57.182Z,1.15
2018-12-31T08:30:24.408Z,1.32
2018-12-31T08:32:51.619Z,1.22
2018-12-31T08:35:19.015Z,0.95
2018-12-31T08:37:46.233Z,0.72
2018-12-31T08:40:13.443Z,0.85
2018-12-31T08:42:40.655Z,1.22
2018-12-31T08:45:07.877Z,0.70
2018-12-31T08:47:35.332Z,0.72
2018-12-31T08:50:03.373Z,2.45
2018-12-31T08:52:30.896Z,1.30
2018-12-31T08:54:58.111Z,1.00
2018-12-31T08:57:25.331Z,1.80
2018-12-31T08:59:52.544Z,2.85
2018-12-31T09:02:19.787Z,2.35
2018-12-31T09:04:47.003Z,1.92
2018-12-31T09:07:14.219Z,1.27
2018-12-31T09:09:41.427Z,2.55
2018-12-31T09:12:08.654Z,1.75
2018-12-31T09:14:35.875Z,1.80
2018-12-31T09:17:03.107Z,1.95
2018-12-31T09:19:30.327Z,2.22
2018-12-31T09:21:57.548Z,1.62
2018-12-31T09:24:24.773Z,2.00
2018-12-31T09:26:51.997Z,2.30
2018-12-31T09:29:19.202Z,1.40
2018-12-31T09:31:46.420Z,1.87
2018-12-31T09:34:13.629Z,1.40
2018-12-31T09:36:40.851Z,1.70
2018-12-31T09:39:08.099Z,1.57
2018-12-31T09:41:35.315Z,1.30
2018-12-31T09:44:02.531Z,1.05
2018-12-31T09:46:29.746Z,1.50
2018-12-31T09:48:56.957Z,1.27
2018-12-31T09:51:24.228Z,1.27
2018-12-31T09:53:51.440Z,1.52
2018-12-31T09:56:18.656Z,1.07
2018-12-31T09:58:45.871Z,1.20
2018-12-31T10:01:13.144Z,1.25
2018-12-31T10:03:40.343Z,2.08
2018-12-31T10:06:07.560Z,1.42
2018-12-31T10:08:34.783Z,1.60
2018-12-31T10:11:02.002Z,1.72
2018-12-31T10:13:29.231Z,4.25
2018-12-31T10:15:56.455Z,5.00
2018-12-31T10:18:23.696Z,7.90
2018-12-31T10:20:50.907Z,3.70
2018-12-31T10:23:18.127Z,3.62
2018-12-31T10:25:45.348Z,2.05
2018-12-31T10:28:12.616Z,4.17
2018-12-31T10:30:39.835Z,3.15
2018-12-31T10:33:07.063Z,5.80
2018-12-31T10:35:34.278Z,3.50
2018-12-31T10:38:01.507Z,5.25
2018-12-31T10:40:28.727Z,5.45
2018-12-31T10:42:55.958Z,6.55
2018-12-31T10:45:23.178Z,2.60
2018-12-31T10:47:50.419Z,1.95
2018-12-31T10:50:17.640Z,4.50
2018-12-31T10:52:44.867Z,3.00
2018-12-31T10:55:12.078Z,1.77
2018-12-31T10:57:39.310Z,1.47
2018-12-31T11:00:07.749Z,1.52
2018-12-31T11:02:34.971Z,1.72
2018-12-31T11:05:02.186Z,1.52
2018-12-31T11:07:29.411Z,2.52
2018-12-31T11:09:56.628Z,2.50
2018-12-31T11:12:23.856Z,2.98
2018-12-31T11:14:51.084Z,5.22
2018-12-31T11:17:18.298Z,2.25
2018-12-31T11:19:45.524Z,5.42
2018-12-31T11:22:12.739Z,2.20
2018-12-31T11:24:39.963Z,2.75
2018-12-31T11:27:07.178Z,2.20
2018-12-31T11:29:34.407Z,3.17
2018-12-31T11:32:01.622Z,2.75
2018-12-31T11:34:28.843Z,3.87
2018-12-31T11:36:56.099Z,3.67
2018-12-31T11:39:23.322Z,4.53
2018-12-31T11:41:50.539Z,4.65
2018-12-31T11:44:17.778Z,2.70
2018-12-31T11:46:44.999Z,2.90
2018-12-31T11:49:12.228Z,2.70
2018-12-31T11:51:39.459Z,3.60
2018-12-31T11:54:06.686Z,2.15
2018-12-31T11:56:33.902Z,2.70
2018-12-31T11:59:01.127Z,3.52
2018-12-31T12:01:28.423Z,2.83
2018-12-31T12:03:55.647Z,3.17
2018-12-31T12:06:22.880Z,5.25
2018-12-31T12:08:50.109Z,1.87
2018-12-31T12:11:17.347Z,2.42
2018-12-31T12:13:44.614Z,2.60
2018-12-31T12:16:11.827Z,2.70
2018-12-31T12:18:39.054Z,2.10
2018-12-31T12:21:06.276Z,2.30
2018-12-31T12:23:33.486Z,2.02
2018-12-31T12:26:00.723Z,3.50
2018-12-31T12:28:27.955Z,2.20
2018-12-31T12:30:55.185Z,2.45
2018-12-31T12:33:22.423Z,2.10
2018-12-31T12:35:49.662Z,1.95
2018-12-31T12:38:17.358Z,1.15
2018-12-31T12:40:44.587Z,1.50
2018-12-31T12:43:11.798Z,1.50
2018-12-31T12:45:39.028Z,1.50
2018-12-31T12:48:06.264Z,1.62
2018-12-31T12:50:33.495Z,1.60
2018-12-31T12:53:00.714Z,3.10
2018-12-31T12:55:27.940Z,2.05
2018-12-31T12:57:55.610Z,1.25
2018-12-31T13:00:22.886Z,2.40
2018-12-31T13:02:50.095Z,2.30
2018-12-31T13:05:21.026Z,1.42
2018-12-31T13:07:48.215Z,1.30
2018-12-31T13:10:15.446Z,1.80
2018-12-31T13:12:42.662Z,1.80
2018-12-31T13:15:09.932Z,1.50
2018-12-31T13:17:37.179Z,1.30
2018-12-31T13:20:04.391Z,1.60
2018-12-31T13:22:31.623Z,1.40
2018-12-31T13:24:58.835Z,1.40
2018-12-31T13:27:26.051Z,2.07
2018-12-31T13:29:53.279Z,2.00
2018-12-31T13:32:20.490Z,2.40
2018-12-31T13:34:47.706Z,2.50
2018-12-31T13:37:14.919Z,2.30
2018-12-31T13:39:42.184Z,2.10
2018-12-31T13:42:09.446Z,2.27
2018-12-31T13:44:36.695Z,2.20
2018-12-31T13:47:04.382Z,2.10
2018-12-31T13:49:31.614Z,2.50
2018-12-31T13:51:58.848Z,2.83
2018-12-31T13:54:26.058Z,3.10
2018-12-31T13:56:53.271Z,2.80
2018-12-31T13:59:20.520Z,2.57
2018-12-31T14:01:48.199Z,2.80
2018-12-31T14:04:15.419Z,3.53
2018-12-31T14:06:42.650Z,3.70
2018-12-31T14:09:10.110Z,4.10
2018-12-31T14:11:37.559Z,3.20
2018-12-31T14:14:04.765Z,2.70
2018-12-31T14:16:32.565Z,2.67
2018-12-31T14:18:59.879Z,2.27
2018-12-31T14:21:27.103Z,2.57
2018-12-31T14:23:54.321Z,2.52
2018-12-31T14:26:21.546Z,2.40
2018-12-31T14:28:49.233Z,2.50
2018-12-31T14:31:16.470Z,2.42
2018-12-31T14:33:43.890Z,2.15
2018-12-31T14:36:11.175Z,2.25
2018-12-31T14:38:38.394Z,2.52
2018-12-31T14:41:05.623Z,2.00
2018-12-31T14:43:32.831Z,2.37
2018-12-31T14:46:00.050Z,3.52
2018-12-31T14:48:27.289Z,4.12
2018-12-31T14:50:54.498Z,3.87
2018-12-31T14:53:21.736Z,3.85
2018-12-31T14:55:48.962Z,4.27
2018-12-31T14:58:16.186Z,3.00
2018-12-31T15:00:43.416Z,4.90
2018-12-31T15:03:15.433Z,5.10
2018-12-31T15:05:42.656Z,5.47
2018-12-31T15:08:09.862Z,6.50
2018-12-31T15:10:37.467Z,5.70
2018-12-31T15:13:04.701Z,4.80
2018-12-31T15:15:31.915Z,3.83
2018-12-31T15:17:59.142Z,4.40
2018-12-31T15:20:26.364Z,4.77
2018-12-31T15:22:53.607Z,4.55
2018-12-31T15:25:20.826Z,5.83
2018-12-31T15:27:52.707Z,6.10
2018-12-31T15:30:19.936Z,6.30
2018-12-31T15:32:47.175Z,6.10
2018-12-31T15:35:14.400Z,6.05
2018-12-31T15:37:46.698Z,7.17
2018-12-31T15:40:13.914Z,6.58
2018-12-31T15:42:41.144Z,6.70
2018-12-31T15:45:08.443Z,6.92
2018-12-31T15:47:35.752Z,5.90
2018-12-31T15:50:03.853Z,6.28
2018-12-31T15:52:31.094Z,7.12
2018-12-31T15:55:01.409Z,5.78
2018-12-31T15:57:28.631Z,5.92
2018-12-31T15:59:55.851Z,5.70
2018-12-31T16:02:23.151Z,5.10
2018-12-31T16:04:50.544Z,4.80
2018-12-31T16:07:17.764Z,4.60
2018-12-31T16:09:48.110Z,4.22
2018-12-31T16:12:26.005Z,3.50
2018-12-31T16:14:53.786Z,3.87
2018-12-31T16:17:21.161Z,4.22
2018-12-31T16:19:48.398Z,5.42
2018-12-31T16:22:15.614Z,5.50
2018-12-31T16:24:42.855Z,5.22
2018-12-31T16:27:13.155Z,5.58
2018-12-31T16:29:40.867Z,5.72
2018-12-31T16:32:08.093Z,6.10
2018-12-31T16:34:35.331Z,13.13
2018-12-31T16:37:02.562Z,15.78
2018-12-31T16:39:29.802Z,11.38
2018-12-31T16:41:57.031Z,12.35
2018-12-31T16:44:24.347Z,23.80
2018-12-31T16:46:51.555Z,22.20
2018-12-31T16:49:19.139Z,15.90
2018-12-31T16:51:46.455Z,8.70
2018-12-31T16:54:13.691Z,8.13
2018-12-31T16:56:40.915Z,6.00
2018-12-31T16:59:08.160Z,6.75
2018-12-31T17:01:36.432Z,7.25
2018-12-31T17:04:23.123Z,7.50
2018-12-31T17:06:50.353Z,6.60
2018-12-31T17:09:17.659Z,13.62
2018-12-31T17:11:44.883Z,8.85
2018-12-31T17:14:12.120Z,7.90
2018-12-31T17:16:39.341Z,7.33
2018-12-31T17:19:06.571Z,7.58
2018-12-31T17:21:33.799Z,7.95
2018-12-31T17:24:01.035Z,6.12
2018-12-31T17:26:28.262Z,7.80
2018-12-31T17:28:55.491Z,7.78
2018-12-31T17:31:22.732Z,7.60
2018-12-31T17:33:49.988Z,7.03
2018-12-31T17:36:17.218Z,9.33
2018-12-31T17:38:44.447Z,7.53
2018-12-31T17:41:11.675Z,7.78
2018-12-31T17:43:38.894Z,8.18
2018-12-31T17:46:06.328Z,15.40
2018-12-31T17:48:33.575Z,20.95
2018-12-31T17:51:00.811Z,19.35
2018-12-31T17:53:28.038Z,10.30
2018-12-31T17:55:55.266Z,8.68
2018-12-31T17:58:22.490Z,8.10
2018-12-31T18:00:49.723Z,7.50
2018-12-31T18:03:16.947Z,7.92
2018-12-31T18:05:44.178Z,6.25
2018-12-31T18:08:11.403Z,9.60
2018-12-31T18:10:38.640Z,11.00
2018-12-31T18:13:05.861Z,13.97
2018-12-31T18:15:33.110Z,12.70
2018-12-31T18:18:00.339Z,10.53
2018-12-31T18:20:28.056Z,11.28
2018-12-31T18:22:55.286Z,11.00
2018-12-31T18:25:22.718Z,10.10
2018-12-31T18:27:49.978Z,9.58
2018-12-31T18:30:17.219Z,11.73
2018-12-31T18:32:44.453Z,10.48
2018-12-31T18:35:12.118Z,10.03
2018-12-31T18:37:41.905Z,9.50
2018-12-31T18:40:08.675Z,7.53
2018-12-31T18:42:35.899Z,6.50
2018-12-31T18:45:03.127Z,9.60
2018-12-31T18:47:30.355Z,9.25
2018-12-31T18:49:57.588Z,8.35
2018-12-31T18:52:24.815Z,8.53
2018-12-31T18:54:52.034Z,7.50
2018-12-31T18:57:19.260Z,8.13
2018-12-31T18:59:46.502Z,39.73
2018-12-31T19:02:13.731Z,30.92
2018-12-31T19:04:40.963Z,20.35
2018-12-31T19:07:08.200Z,16.75
2018-12-31T19:09:35.426Z,11.80
2018-12-31T19:12:02.659Z,7.65
2018-12-31T19:14:29.880Z,9.15
2018-12-31T19:16:57.136Z,9.98
2018-12-31T19:19:25.272Z,9.50
2018-12-31T19:21:52.767Z,8.50
2018-12-31T19:24:19.992Z,7.67
2018-12-31T19:26:47.224Z,9.33
2018-12-31T19:29:14.450Z,8.55
2018-12-31T19:31:41.685Z,8.25
2018-12-31T19:34:08.910Z,10.28
2018-12-31T19:36:36.133Z,9.33
2018-12-31T19:39:04.931Z,10.75
2018-12-31T19:41:32.163Z,10.35
2018-12-31T19:43:59.390Z,12.58
2018-12-31T19:46:27.102Z,12.13
2018-12-31T19:48:54.343Z,12.85
2018-12-31T19:51:21.574Z,14.47
2018-12-31T19:53:48.800Z,15.35
2018-12-31T19:56:16.030Z,15.65
2018-12-31T19:58:43.275Z,14.35
2018-12-31T20:01:10.880Z,14.55
2018-12-31T20:03:38.129Z,13.35
2018-12-31T20:06:05.363Z,13.28
2018-12-31T20:08:32.595Z,11.00
2018-12-31T20:10:59.819Z,11.68
2018-12-31T20:13:27.044Z,12.60
2018-12-31T20:15:54.767Z,10.80
2018-12-31T20:18:22.011Z,10.60
2018-12-31T20:20:49.255Z,11.55
2018-12-31T20:23:16.551Z,12.58
2018-12-31T20:25:43.787Z,13.90
2018-12-31T20:28:11.016Z,14.40
2018-12-31T20:30:38.846Z,15.90
2018-12-31T20:33:06.073Z,13.18
2018-12-31T20:35:33.306Z,15.03
2018-12-31T20:38:04.814Z,43.10
2018-12-31T20:40:32.108Z,138.10
2018-12-31T20:42:59.343Z,399.92
2018-12-31T20:45:27.069Z,157.18
2018-12-31T20:48:01.460Z,32.53
2018-12-31T20:50:23.244Z,21.12
2018-12-31T20:52:50.477Z,18.55
2018-12-31T20:55:17.706Z,16.02
2018-12-31T20:57:44.926Z,15.50
2018-12-31T21:00:12.155Z,15.43
2018-12-31T21:02:39.395Z,15.53
2018-12-31T21:05:06.637Z,17.37
2018-12-31T21:07:33.862Z,17.95
2018-12-31T21:10:01.160Z,18.40
2018-12-31T21:12:28.422Z,16.45
2018-12-31T21:14:55.639Z,15.83
2018-12-31T21:17:22.867Z,17.92
2018-12-31T21:19:50.086Z,17.75
2018-12-31T21:22:17.320Z,18.12
2018-12-31T21:24:44.554Z,45.70
2018-12-31T21:27:11.816Z,34.35
2018-12-31T21:29:39.112Z,32.23
2018-12-31T21:32:06.543Z,36.50
2018-12-31T21:34:33.760Z,22.00
2018-12-31T21:37:00.995Z,18.75
2018-12-31T21:39:28.211Z,21.57
2018-12-31T21:41:55.443Z,21.70
2018-12-31T21:44:22.665Z,23.65
2018-12-31T21:46:49.892Z,23.98
2018-12-31T21:49:17.123Z,21.07
2018-12-31T21:51:44.346Z,27.13
2018-12-31T21:54:11.589Z,44.90
2018-12-31T21:56:38.810Z,20.68
2018-12-31T21:59:06.039Z,23.62
2018-12-31T22:01:33.259Z,36.05
2018-12-31T22:04:00.488Z,24.00
2018-12-31T22:06:27.790Z,21.45
2018-12-31T22:08:55.019Z,20.80
2018-12-31T22:11:22.247Z,21.68
2018-12-31T22:13:49.479Z,21.90
2018-12-31T22:16:16.974Z,20.08
2018-12-31T22:18:44.205Z,49.95
2018-12-31T22:21:11.428Z,30.75
2018-12-31T22:23:38.667Z,37.58
2018-12-31T22:26:05.880Z,21.15
2018-12-31T22:28:33.111Z,25.23
2018-12-31T22:31:00.343Z,24.18
2018-12-31T22:33:27.571Z,22.10
2018-12-31T22:35:54.798Z,24.05
2018-12-31T22:38:22.039Z,21.50
2018-12-31T22:40:49.280Z,22.70
2018-12-31T22:43:16.539Z,35.60
2018-12-31T22:45:43.761Z,25.12
2018-12-31T22:48:10.995Z,26.05
2018-12-31T22:50:38.246Z,25.55
2018-12-31T22:53:05.509Z,23.32
2018-12-31T22:55:32.730Z,22.87
2018-12-31T22:57:59.942Z,26.07
2018-12-31T23:00:28.922Z,40.25
2018-12-31T23:02:56.150Z,47.38
2018-12-31T23:05:23.391Z,152.35
2018-12-31T23:07:50.618Z,109.35
2018-12-31T23:10:19.185Z,166.60
2018-12-31T23:12:46.870Z,99.45
2018-12-31T23:15:15.487Z,748.62
2018-12-31T23:17:42.720Z,864.35
2018-12-31T23:20:10.835Z,849.90
2018-12-31T23:22:38.063Z,362.10
2018-12-31T23:25:05.312Z,206.23
2018-12-31T23:27:32.548Z,589.48
2018-12-31T23:30:00.706Z,145.53
2018-12-31T23:32:27.929Z,89.95
2018-12-31T23:34:55.162Z,71.62
2018-12-31T23:37:22.391Z,66.30
2018-12-31T23:39:49.636Z,126.82
2018-12-31T23:42:16.876Z,440.55
2018-12-31T23:44:44.110Z,274.73
2018-12-31T23:47:11.355Z,170.07
2018-12-31T23:49:38.598Z,84.40
2018-12-31T23:52:05.824Z,107.75
2018-12-31T23:54:33.058Z,58.58
2018-12-31T23:57:00.287Z,88.62
2018-12-31T23:59:27.527Z,63.55
